sensor_id;sensor_type;location;lat;lon;timestamp;pressure;altitude;pressure_sealevel;temperature;humidity
35758;BME280;21879;50.110;18.900;2023-07-29T00:07:14;98078.35;;;18.90;67.60
35758;BME280;21879;50.110;18.900;2023-07-29T00:17:42;98085.79;;;18.89;67.22
35758;BME280;21879;50.110;18.900;2023-07-29T00:28:09;98095.55;;;18.67;67.62
35758;BME280;21879;50.110;18.900;2023-07-29T00:38:37;98093.37;;;18.79;67.77
35758;BME280;21879;50.110;18.900;2023-07-29T00:49:05;98083.52;;;18.65;67.72
35758;BME280;21879;50.110;18.900;2023-07-29T00:59:33;98074.63;;;18.25;68.64
35758;BME280;21879;50.110;18.900;2023-07-29T01:10:05;98065.65;;;18.22;69.72
35758;BME280;21879;50.110;18.900;2023-07-29T01:20:37;98062.00;;;18.45;70.08
35758;BME280;21879;50.110;18.900;2023-07-29T01:31:12;98054.93;;;18.62;70.03
35758;BME280;21879;50.110;18.900;2023-07-29T01:41:41;98051.79;;;18.79;69.99
35758;BME280;21879;50.110;18.900;2023-07-29T01:52:10;98060.21;;;18.90;69.79
35758;BME280;21879;50.110;18.900;2023-07-29T02:02:38;98072.70;;;18.93;69.50
35758;BME280;21879;50.110;18.900;2023-07-29T02:13:06;98079.74;;;18.80;69.89
35758;BME280;21879;50.110;18.900;2023-07-29T02:23:33;98084.92;;;18.92;70.54
35758;BME280;21879;50.110;18.900;2023-07-29T02:34:01;98083.38;;;19.01;70.16
35758;BME280;21879;50.110;18.900;2023-07-29T02:44:28;98082.96;;;19.16;70.27
35758;BME280;21879;50.110;18.900;2023-07-29T02:54:56;98083.20;;;19.28;69.82
35758;BME280;21879;50.110;18.900;2023-07-29T03:05:23;98082.48;;;19.34;69.37
35758;BME280;21879;50.110;18.900;2023-07-29T03:15:52;98090.34;;;19.25;68.86
35758;BME280;21879;50.110;18.900;2023-07-29T03:26:20;98092.14;;;19.12;68.95
35758;BME280;21879;50.110;18.900;2023-07-29T03:36:49;98094.48;;;18.91;68.91
35758;BME280;21879;50.110;18.900;2023-07-29T03:47:18;98101.05;;;18.84;69.27
35758;BME280;21879;50.110;18.900;2023-07-29T03:57:46;98108.95;;;18.81;69.49
35758;BME280;21879;50.110;18.900;2023-07-29T04:08:15;98108.58;;;18.64;69.87
35758;BME280;21879;50.110;18.900;2023-07-29T04:18:43;98117.27;;;18.69;70.67
35758;BME280;21879;50.110;18.900;2023-07-29T04:29:12;98112.66;;;18.84;71.18
35758;BME280;21879;50.110;18.900;2023-07-29T04:39:40;98114.33;;;18.89;71.71
35758;BME280;21879;50.110;18.900;2023-07-29T04:50:10;98114.30;;;19.03;72.33
35758;BME280;21879;50.110;18.900;2023-07-29T05:00:38;98125.97;;;19.22;72.98
35758;BME280;21879;50.110;18.900;2023-07-29T05:11:05;98134.05;;;19.61;73.12
35758;BME280;21879;50.110;18.900;2023-07-29T05:21:33;98142.77;;;20.20;73.43
35758;BME280;21879;50.110;18.900;2023-07-29T05:32:05;98142.77;;;20.95;72.54
35758;BME280;21879;50.110;18.900;2023-07-29T05:42:32;98150.99;;;21.20;71.95
35758;BME280;21879;50.110;18.900;2023-07-29T05:53:00;98144.92;;;21.29;71.11
35758;BME280;21879;50.110;18.900;2023-07-29T06:03:27;98141.73;;;21.44;71.76
35758;BME280;21879;50.110;18.900;2023-07-29T06:13:55;98144.92;;;22.05;71.17
35758;BME280;21879;50.110;18.900;2023-07-29T06:24:23;98149.33;;;22.64;69.90
35758;BME280;21879;50.110;18.900;2023-07-29T06:34:50;98154.06;;;23.33;68.97
35758;BME280;21879;50.110;18.900;2023-07-29T06:45:20;98167.91;;;23.76;66.83
35758;BME280;21879;50.110;18.900;2023-07-29T06:55:47;98169.10;;;23.76;66.33
35758;BME280;21879;50.110;18.900;2023-07-29T07:06:15;98161.37;;;24.33;65.91
35758;BME280;21879;50.110;18.900;2023-07-29T07:16:43;98156.52;;;24.58;63.70
35758;BME280;21879;50.110;18.900;2023-07-29T07:27:11;98158.09;;;24.90;63.35
35758;BME280;21879;50.110;18.900;2023-07-29T07:37:40;98161.36;;;25.23;62.38
35758;BME280;21879;50.110;18.900;2023-07-29T07:48:08;98162.36;;;25.26;61.66
35758;BME280;21879;50.110;18.900;2023-07-29T07:58:36;98156.10;;;25.63;60.33
35758;BME280;21879;50.110;18.900;2023-07-29T08:09:05;98159.42;;;25.73;59.19
35758;BME280;21879;50.110;18.900;2023-07-29T08:19:33;98147.85;;;26.02;58.79
35758;BME280;21879;50.110;18.900;2023-07-29T08:30:02;98133.63;;;26.21;57.22
35758;BME280;21879;50.110;18.900;2023-07-29T08:40:30;98142.77;;;25.98;55.69
35758;BME280;21879;50.110;18.900;2023-07-29T08:51:00;98138.96;;;25.72;55.81
35758;BME280;21879;50.110;18.900;2023-07-29T09:01:28;98130.73;;;25.44;55.58
35758;BME280;21879;50.110;18.900;2023-07-29T09:11:57;98129.58;;;25.22;55.68
35758;BME280;21879;50.110;18.900;2023-07-29T09:22:26;98122.64;;;25.02;56.30
35758;BME280;21879;50.110;18.900;2023-07-29T09:32:56;98115.02;;;25.29;56.49
35758;BME280;21879;50.110;18.900;2023-07-29T09:43:28;98106.84;;;25.66;56.20
35758;BME280;21879;50.110;18.900;2023-07-29T09:53:56;98097.84;;;25.88;55.23
35758;BME280;21879;50.110;18.900;2023-07-29T10:04:25;98093.90;;;25.88;54.87
35758;BME280;21879;50.110;18.900;2023-07-29T10:14:54;98092.34;;;25.83;55.03
35758;BME280;21879;50.110;18.900;2023-07-29T10:25:24;98086.04;;;25.66;54.96
35758;BME280;21879;50.110;18.900;2023-07-29T10:35:54;98090.08;;;25.58;55.05
35758;BME280;21879;50.110;18.900;2023-07-29T10:46:23;98086.64;;;25.52;54.70
35758;BME280;21879;50.110;18.900;2023-07-29T10:56:51;98083.86;;;25.49;54.73
35758;BME280;21879;50.110;18.900;2023-07-29T11:07:23;98077.38;;;25.46;54.61
35758;BME280;21879;50.110;18.900;2023-07-29T11:17:54;98076.05;;;25.53;54.46
35758;BME280;21879;50.110;18.900;2023-07-29T11:28:23;98066.38;;;25.61;54.04
35758;BME280;21879;50.110;18.900;2023-07-29T11:38:51;98056.63;;;25.58;54.19
35758;BME280;21879;50.110;18.900;2023-07-29T11:49:19;98035.66;;;25.69;54.06
35758;BME280;21879;50.110;18.900;2023-07-29T11:59:47;98036.16;;;25.73;53.79
35758;BME280;21879;50.110;18.900;2023-07-29T12:10:15;98030.67;;;25.86;53.49
35758;BME280;21879;50.110;18.900;2023-07-29T12:20:43;98025.40;;;25.98;52.34
35758;BME280;21879;50.110;18.900;2023-07-29T12:31:11;98010.42;;;26.09;52.35
35758;BME280;21879;50.110;18.900;2023-07-29T12:41:39;97993.22;;;26.12;50.95
35758;BME280;21879;50.110;18.900;2023-07-29T12:52:07;97992.86;;;26.04;50.84
35758;BME280;21879;50.110;18.900;2023-07-29T13:02:34;97993.38;;;26.04;51.06
35758;BME280;21879;50.110;18.900;2023-07-29T13:13:02;97987.17;;;26.14;51.12
35758;BME280;21879;50.110;18.900;2023-07-29T13:23:30;97989.66;;;26.31;50.97
35758;BME280;21879;50.110;18.900;2023-07-29T13:33:57;97981.94;;;26.34;50.31
35758;BME280;21879;50.110;18.900;2023-07-29T13:44:25;97977.25;;;26.05;49.85
35758;BME280;21879;50.110;18.900;2023-07-29T13:54:52;97969.52;;;25.93;50.86
35758;BME280;21879;50.110;18.900;2023-07-29T14:05:20;97949.20;;;25.91;51.33
35758;BME280;21879;50.110;18.900;2023-07-29T14:15:48;97936.86;;;25.92;51.14
35758;BME280;21879;50.110;18.900;2023-07-29T14:26:15;97932.41;;;25.79;51.55
35758;BME280;21879;50.110;18.900;2023-07-29T14:36:43;97921.16;;;25.58;52.28
35758;BME280;21879;50.110;18.900;2023-07-29T14:47:10;97916.50;;;25.52;53.06
35758;BME280;21879;50.110;18.900;2023-07-29T14:57:38;97915.63;;;25.47;52.75
35758;BME280;21879;50.110;18.900;2023-07-29T15:08:07;97921.33;;;25.52;52.34
35758;BME280;21879;50.110;18.900;2023-07-29T15:18:35;97931.38;;;25.64;51.97
35758;BME280;21879;50.110;18.900;2023-07-29T15:29:03;97943.00;;;25.76;51.20
35758;BME280;21879;50.110;18.900;2023-07-29T15:39:31;97951.95;;;25.73;49.73
35758;BME280;21879;50.110;18.900;2023-07-29T15:49:58;97960.19;;;25.51;49.62
35758;BME280;21879;50.110;18.900;2023-07-29T16:00:26;97955.45;;;25.31;50.52
35758;BME280;21879;50.110;18.900;2023-07-29T16:10:55;97940.30;;;25.20;50.90
35758;BME280;21879;50.110;18.900;2023-07-29T16:21:22;97922.02;;;25.06;51.54
35758;BME280;21879;50.110;18.900;2023-07-29T16:31:50;97911.66;;;24.89;52.18
35758;BME280;21879;50.110;18.900;2023-07-29T16:42:18;97900.27;;;24.69;52.89
35758;BME280;21879;50.110;18.900;2023-07-29T16:52:46;97893.59;;;24.57;53.55
35758;BME280;21879;50.110;18.900;2023-07-29T17:03:15;97901.20;;;24.37;53.42
35758;BME280;21879;50.110;18.900;2023-07-29T17:13:44;97908.81;;;24.14;53.37
35758;BME280;21879;50.110;18.900;2023-07-29T17:24:12;97918.32;;;23.95;53.71
35758;BME280;21879;50.110;18.900;2023-07-29T17:34:39;97917.15;;;23.58;54.25
35758;BME280;21879;50.110;18.900;2023-07-29T17:45:08;97930.27;;;23.20;55.05
35758;BME280;21879;50.110;18.900;2023-07-29T17:55:38;97930.96;;;22.98;55.91
35758;BME280;21879;50.110;18.900;2023-07-29T18:06:13;97930.17;;;22.82;56.34
35758;BME280;21879;50.110;18.900;2023-07-29T18:16:41;97946.84;;;22.57;57.13
35758;BME280;21879;50.110;18.900;2023-07-29T18:27:09;97949.57;;;22.63;57.64
35758;BME280;21879;50.110;18.900;2023-07-29T18:37:37;97960.11;;;22.72;57.78
35758;BME280;21879;50.110;18.900;2023-07-29T18:48:05;97965.15;;;22.68;57.85
35758;BME280;21879;50.110;18.900;2023-07-29T18:58:33;97986.28;;;22.70;58.24
35758;BME280;21879;50.110;18.900;2023-07-29T19:09:00;97992.17;;;22.72;58.70
35758;BME280;21879;50.110;18.900;2023-07-29T19:19:28;97995.84;;;22.68;58.79
35758;BME280;21879;50.110;18.900;2023-07-29T19:29:56;97994.40;;;22.43;58.83
35758;BME280;21879;50.110;18.900;2023-07-29T19:40:24;97997.41;;;21.87;59.52
35758;BME280;21879;50.110;18.900;2023-07-29T19:50:51;98010.45;;;21.51;60.72
35758;BME280;21879;50.110;18.900;2023-07-29T20:01:19;98005.66;;;21.37;61.52
35758;BME280;21879;50.110;18.900;2023-07-29T20:11:46;98000.66;;;21.18;62.21
35758;BME280;21879;50.110;18.900;2023-07-29T20:22:14;97989.41;;;20.89;63.23
35758;BME280;21879;50.110;18.900;2023-07-29T20:32:42;97996.16;;;20.89;64.02
35758;BME280;21879;50.110;18.900;2023-07-29T20:43:10;97998.32;;;20.82;64.49
35758;BME280;21879;50.110;18.900;2023-07-29T20:53:37;98004.18;;;20.79;65.13
35758;BME280;21879;50.110;18.900;2023-07-29T21:04:05;98012.52;;;20.90;65.30
35758;BME280;21879;50.110;18.900;2023-07-29T21:36:57;98014.99;;;21.04;65.73
35758;BME280;21879;50.110;18.900;2023-07-29T21:47:26;98026.00;;;20.80;66.19
35758;BME280;21879;50.110;18.900;2023-07-29T21:57:54;98034.81;;;20.75;66.55
35758;BME280;21879;50.110;18.900;2023-07-29T22:08:22;98035.89;;;20.72;66.74
35758;BME280;21879;50.110;18.900;2023-07-29T22:18:50;98028.02;;;20.62;66.94
35758;BME280;21879;50.110;18.900;2023-07-29T22:29:18;98031.87;;;20.54;67.26
35758;BME280;21879;50.110;18.900;2023-07-29T22:39:45;98025.64;;;20.60;67.12
35758;BME280;21879;50.110;18.900;2023-07-29T22:50:14;98031.95;;;20.76;67.01
35758;BME280;21879;50.110;18.900;2023-07-29T23:00:42;98029.82;;;20.90;66.63
35758;BME280;21879;50.110;18.900;2023-07-29T23:11:10;98037.44;;;21.04;66.52
35758;BME280;21879;50.110;18.900;2023-07-29T23:21:37;98043.34;;;21.08;66.40
35758;BME280;21879;50.110;18.900;2023-07-29T23:32:06;98061.96;;;21.04;66.39
35758;BME280;21879;50.110;18.900;2023-07-29T23:42:34;98063.30;;;20.88;66.68
35758;BME280;21879;50.110;18.900;2023-07-29T23:53:02;98052.61;;;20.82;67.23
